Time;durP1;ratioP1;P1;durP2;ratioP2;P2;SDS_P1;SDS_P2;PMS_P1;PMS_P2;Temp;Humidity;BMP_temperature;BMP_pressure;BME280_temperature;BME280_humidity;BME280_pressure;Samples;Min_cycle;Max_cycle;Signal;HPM_P1;HPM_P2
2024/02/13 00:03:39;;;;;;;4.57;0.93;;;;;;;6.49;70.78;100235.41;10306407;28;20065;-62
2024/02/13 00:08:41;;;;;;;3.15;1.08;;;;;;;6.50;71.38;100249.63;10303869;28;20505;-62
2024/02/13 00:13:46;;;;;;;3.45;1.33;;;;;;;6.52;71.36;100266.34;10300518;28;20049;-61
2024/02/13 00:18:50;;;;;;;3.42;0.90;;;;;;;6.61;70.96;100269.91;10299481;28;20571;-63
2024/02/13 00:23:51;;;;;;;1.98;0.93;;;;;;;6.62;71.15;100280.44;10302018;28;20066;-62
2024/02/13 00:28:53;;;;;;;2.67;1.00;;;;;;;6.62;71.68;100284.97;10297162;28;20062;-62
2024/02/13 00:33:55;;;;;;;4.80;0.95;;;;;;;6.65;71.93;100284.63;10293608;28;20456;-63
2024/02/13 00:38:57;;;;;;;3.35;1.00;;;;;;;6.69;71.24;100294.84;10296166;28;20058;-63
2024/02/13 00:43:58;;;;;;;5.72;1.20;;;;;;;6.65;71.70;100309.50;10294981;28;20158;-63
2024/02/13 00:49:01;;;;;;;6.88;1.20;;;;;;;6.66;71.93;100308.53;10298459;28;20050;-62
2024/02/13 00:54:02;;;;;;;5.53;1.30;;;;;;;6.67;72.09;100312.88;10299146;28;20046;-63
2024/02/13 00:59:04;;;;;;;6.80;0.90;;;;;;;6.55;72.07;100316.75;10299418;28;20176;-62
2024/02/13 01:04:08;;;;;;;3.58;1.15;;;;;;;6.46;72.20;100323.84;10300234;28;20058;-64
2024/02/13 01:09:09;;;;;;;8.27;2.15;;;;;;;6.42;72.40;100325.13;10301066;28;20117;-62
2024/02/13 01:14:11;;;;;;;4.35;1.05;;;;;;;6.35;72.56;100334.72;10299557;28;20101;-59
2024/02/13 01:19:12;;;;;;;2.58;1.52;;;;;;;6.33;72.06;100340.22;10309157;28;20050;-60
2024/02/13 01:24:15;;;;;;;7.70;1.38;;;;;;;6.22;72.15;100356.44;10302479;28;20402;-60
2024/02/13 01:29:18;;;;;;;6.25;2.05;;;;;;;6.24;72.15;100359.81;10304794;28;20119;-60
2024/02/13 01:34:19;;;;;;;4.45;1.67;;;;;;;6.17;71.96;100361.38;10303073;28;20113;-60
2024/02/13 01:39:24;;;;;;;2.95;1.55;;;;;;;6.00;71.95;100364.81;10299335;28;20053;-60
2024/02/13 01:44:28;;;;;;;2.42;1.65;;;;;;;5.89;70.99;100368.47;10307245;28;20145;-60
2024/02/13 01:49:30;;;;;;;3.00;1.20;;;;;;;5.79;71.71;100381.84;10301569;28;20062;-60
2024/02/13 01:54:32;;;;;;;3.53;1.80;;;;;;;5.64;70.98;100378.75;10306884;28;20516;-60
2024/02/13 01:59:38;;;;;;;3.65;1.80;;;;;;;5.53;71.35;100387.78;10300972;28;20058;-60
2024/02/13 02:04:41;;;;;;;5.57;1.37;;;;;;;5.38;71.14;100391.84;10306786;28;20547;-60
2024/02/13 02:09:43;;;;;;;2.65;1.67;;;;;;;5.25;72.20;100388.63;10300306;28;20169;-60
2024/02/13 02:14:45;;;;;;;3.58;1.50;;;;;;;5.15;71.64;100401.94;10299462;28;20058;-60
2024/02/13 02:19:47;;;;;;;4.15;1.23;;;;;;;5.06;72.15;100400.13;10302749;28;20050;-60
2024/02/13 02:24:48;;;;;;;12.02;6.20;;;;;;;4.87;71.89;100407.09;10311035;28;20050;-60
2024/02/13 02:29:49;;;;;;;8.48;4.63;;;;;;;4.84;72.29;100414.53;10301927;28;20158;-60
2024/02/13 02:34:51;;;;;;;11.57;4.60;;;;;;;4.77;71.72;100424.88;10294359;28;20129;-60
2024/02/13 02:39:53;;;;;;;6.43;2.92;;;;;;;4.66;72.11;100425.00;10299704;28;20058;-60
2024/02/13 02:44:54;;;;;;;5.68;2.95;;;;;;;4.61;71.91;100425.41;10302003;28;20054;-60
2024/02/13 02:49:55;;;;;;;7.28;3.45;;;;;;;4.56;71.89;100439.13;10300798;28;20054;-60
2024/02/13 02:54:57;;;;;;;7.78;3.92;;;;;;;4.52;71.92;100432.41;10306077;28;20050;-60
2024/02/13 02:59:58;;;;;;;3.95;2.67;;;;;;;4.43;72.08;100441.19;10300164;28;20494;-60
2024/02/13 03:05:03;;;;;;;6.45;2.83;;;;;;;4.39;71.94;100447.75;10299249;28;20085;-60
2024/02/13 03:10:10;;;;;;;6.75;3.25;;;;;;;4.31;72.33;100445.75;10295678;28;20054;-60
2024/02/13 03:15:12;;;;;;;7.25;3.47;;;;;;;4.23;72.58;100463.38;10304096;28;20046;-60
2024/02/13 03:20:14;;;;;;;8.73;2.50;;;;;;;4.17;72.41;100462.91;10299972;28;20560;-60
2024/02/13 03:25:15;;;;;;;4.10;2.47;;;;;;;4.16;72.60;100463.03;10298452;28;20054;-61
2024/02/13 03:30:17;;;;;;;6.25;2.75;;;;;;;4.06;72.25;100465.63;10300808;28;20133;-60
2024/02/13 03:35:18;;;;;;;4.95;1.55;;;;;;;4.06;72.48;100470.13;10301462;28;20069;-60
2024/02/13 03:40:21;;;;;;;4.50;2.38;;;;;;;4.02;72.24;100482.84;10300649;28;20109;-61
2024/02/13 03:45:23;;;;;;;3.25;1.58;;;;;;;4.02;72.40;100480.19;10301747;28;20073;-60
2024/02/13 03:50:26;;;;;;;5.25;2.25;;;;;;;4.01;72.55;100485.63;10299584;28;20137;-59
2024/02/13 03:55:28;;;;;;;4.40;2.20;;;;;;;3.95;72.58;100490.50;10296192;28;20137;-61
2024/02/13 04:00:30;;;;;;;7.45;2.22;;;;;;;3.89;72.38;100491.03;10300018;28;20517;-60
2024/02/13 04:05:37;;;;;;;8.07;1.90;;;;;;;3.89;72.58;100490.16;10302328;28;20771;-59
2024/02/13 04:10:39;;;;;;;5.65;1.70;;;;;;;3.82;72.39;100497.81;10301922;28;20061;-59
2024/02/13 04:15:40;;;;;;;8.05;2.75;;;;;;;3.76;72.75;100487.69;10295564;28;20055;-60
2024/02/13 04:20:42;;;;;;;10.57;2.38;;;;;;;3.75;72.88;100493.97;10301946;28;20130;-60
2024/02/13 04:25:43;;;;;;;4.15;2.65;;;;;;;3.80;72.55;100488.28;10300314;28;20497;-59
2024/02/13 04:30:45;;;;;;;8.98;2.28;;;;;;;3.83;72.62;100493.34;10302538;28;20109;-60
2024/02/13 04:35:47;;;;;;;11.05;2.65;;;;;;;3.85;72.83;100500.22;10300934;28;20096;-59
2024/02/13 04:40:50;;;;;;;7.38;3.15;;;;;;;3.85;73.07;100510.00;10299315;28;20053;-60
2024/02/13 04:45:52;;;;;;;8.85;3.50;;;;;;;3.83;72.63;100523.44;10304104;28;20487;-60
2024/02/13 04:50:53;;;;;;;7.05;2.97;;;;;;;3.80;73.11;100523.69;10302198;28;20700;-60
2024/02/13 04:55:55;;;;;;;4.60;2.30;;;;;;;3.79;72.79;100522.00;10303198;28;20146;-61
2024/02/13 05:01:04;;;;;;;8.18;3.47;;;;;;;3.77;73.40;100535.44;10300851;28;20063;-60
2024/02/13 05:11:26;;;;;;;10.13;2.90;;;;;;;3.69;73.04;100524.59;10300195;28;20058;-60
2024/02/13 05:16:29;;;;;;;8.60;2.85;;;;;;;3.70;73.15;100533.41;10307163;28;20054;-60
2024/02/13 05:21:30;;;;;;;9.25;2.78;;;;;;;3.71;73.05;100540.41;10307743;28;20055;-60
2024/02/13 05:26:33;;;;;;;8.90;3.30;;;;;;;3.84;73.93;100540.25;10304869;28;20049;-60
2024/02/13 05:31:35;;;;;;;12.35;2.78;;;;;;;3.99;74.48;100544.28;10305389;28;20058;-61
2024/02/13 05:36:37;;;;;;;13.60;3.13;;;;;;;4.16;74.49;100542.84;10308575;28;20061;-60
2024/02/13 05:41:40;;;;;;;7.88;2.25;;;;;;;4.29;74.29;100546.16;10306028;28;20058;-60
2024/02/13 05:46:42;;;;;;;5.00;1.85;;;;;;;4.30;74.35;100545.16;10298467;28;20042;-61
2024/02/13 05:51:44;;;;;;;6.97;2.78;;;;;;;4.29;74.22;100553.31;10302263;28;20458;-62
2024/02/13 05:56:46;;;;;;;8.52;3.38;;;;;;;4.28;73.83;100549.78;10309740;28;20477;-62
2024/02/13 06:01:49;;;;;;;11.82;2.70;;;;;;;4.26;73.98;100554.38;10302517;28;20134;-63
2024/02/13 06:06:52;;;;;;;12.40;3.40;;;;;;;4.25;73.88;100552.72;10310706;28;20058;-62
2024/02/13 06:11:55;;;;;;;15.10;4.68;;;;;;;4.27;74.57;100556.09;10303369;28;20043;-62
2024/02/13 06:16:57;;;;;;;10.82;3.67;;;;;;;4.34;74.96;100559.06;10300166;28;20116;-62
2024/02/13 06:21:58;;;;;;;15.23;3.53;;;;;;;4.44;74.80;100556.47;10303456;28;20426;-62
2024/02/13 06:27:00;;;;;;;8.10;3.58;;;;;;;4.49;75.02;100564.91;10297691;28;20113;-63
2024/02/13 06:32:02;;;;;;;10.55;4.10;;;;;;;4.57;75.16;100573.91;10301167;28;20471;-65
2024/02/13 06:37:03;;;;;;;9.57;4.18;;;;;;;4.60;74.64;100578.16;10295829;28;20050;-65
2024/02/13 06:42:05;;;;;;;10.70;3.47;;;;;;;4.64;75.39;100586.69;10295287;28;20105;-66
2024/02/13 06:47:08;;;;;;;9.88;3.47;;;;;;;4.62;75.41;100596.63;10293771;28;20054;-64
2024/02/13 06:52:10;;;;;;;15.45;3.33;;;;;;;4.62;75.03;100604.63;10299875;28;20058;-64
2024/02/13 06:57:12;;;;;;;18.20;3.15;;;;;;;4.63;75.41;100608.97;10302369;28;20144;-63
2024/02/13 07:02:14;;;;;;;14.93;3.33;;;;;;;4.61;75.52;100613.59;10297065;28;20561;-68
2024/02/13 07:07:15;;;;;;;12.15;3.63;;;;;;;4.56;75.52;100613.97;10294630;28;20129;-71
2024/02/13 07:12:37;;;;;;;16.27;3.80;;;;;;;4.55;75.31;100618.47;10301039;28;20049;-70
2024/02/13 07:17:38;;;;;;;16.08;4.63;;;;;;;4.51;75.32;100618.84;10302153;28;20196;-69
2024/02/13 07:22:43;;;;;;;11.52;4.20;;;;;;;4.52;76.16;100636.50;10303876;28;20054;-70
2024/02/13 07:27:47;;;;;;;10.48;3.45;;;;;;;4.52;75.75;100636.50;10299020;28;20053;-69
2024/02/13 07:32:49;;;;;;;9.48;3.58;;;;;;;4.53;76.15;100643.53;10299568;28;20047;-68
2024/02/13 07:37:51;;;;;;;15.00;3.92;;;;;;;4.56;76.21;100638.78;10298510;28;20070;-69
2024/02/13 07:42:52;;;;;;;13.27;4.22;;;;;;;4.61;76.21;100648.22;10295863;28;20636;-70
2024/02/13 07:47:54;;;;;;;11.10;4.38;;;;;;;4.63;76.22;100654.25;10304068;28;20093;-70
2024/02/13 07:52:56;;;;;;;8.70;4.65;;;;;;;4.66;76.42;100662.81;10309160;28;20589;-70
2024/02/13 07:57:58;;;;;;;15.93;4.25;;;;;;;4.74;76.31;100657.69;10304658;28;20575;-69
2024/02/13 08:03:01;;;;;;;9.57;3.80;;;;;;;4.79;76.35;100654.63;10302555;28;20250;-70
2024/02/13 08:08:06;;;;;;;14.82;4.32;;;;;;;4.87;76.18;100662.78;10301157;28;20050;-70
2024/02/13 08:13:11;;;;;;;;;;;;;;;4.92;75.78;100663.25;10297191;28;20564;-64
2024/02/13 08:18:14;;;;;;;11.70;4.70;;;;;;;4.94;75.76;100668.47;10300567;28;19933;-65
2024/02/13 08:23:15;;;;;;;12.75;4.05;;;;;;;4.95;76.21;100665.63;10292782;28;20066;-66
2024/02/13 08:28:17;;;;;;;17.38;5.60;;;;;;;5.04;75.86;100665.84;10302186;28;20410;-65
2024/02/13 08:33:22;;;;;;;15.98;4.38;;;;;;;5.15;75.58;100666.59;10299556;28;20054;-64
2024/02/13 08:38:24;;;;;;;9.95;4.75;;;;;;;5.31;75.98;100667.91;10294648;28;20057;-65
2024/02/13 08:43:25;;;;;;;13.38;5.50;;;;;;;5.42;75.59;100675.00;10302393;28;20050;-67
2024/02/13 08:48:27;;;;;;;10.07;4.68;;;;;;;5.62;76.31;100667.91;10297958;28;20101;-65
2024/02/13 08:53:29;;;;;;;14.13;5.03;;;;;;;5.70;76.34;100666.22;10296711;28;20101;-65
2024/02/13 08:58:31;;;;;;;8.40;3.58;;;;;;;5.81;76.04;100673.28;10292145;28;20047;-65
2024/02/13 09:03:33;;;;;;;11.15;4.43;;;;;;;5.95;75.91;100672.91;10300383;28;20056;-65
2024/02/13 09:08:37;;;;;;;10.43;5.20;;;;;;;6.05;76.52;100670.25;10306002;28;20059;-66
2024/02/13 09:13:44;;;;;;;7.68;4.32;;;;;;;6.23;76.34;100680.25;10296356;28;20378;-65
2024/02/13 09:18:47;;;;;;;8.10;3.63;;;;;;;6.33;76.02;100684.59;10298308;28;20073;-65
2024/02/13 09:23:49;;;;;;;6.30;3.60;;;;;;;6.52;75.63;100673.06;10302293;28;20053;-65
2024/02/13 09:28:50;;;;;;;7.30;3.03;;;;;;;6.65;75.53;100687.97;10305610;28;20058;-65
2024/02/13 09:33:56;;;;;;;9.77;3.60;;;;;;;6.91;75.64;100688.19;10304548;28;20051;-65
2024/02/13 09:38:58;;;;;;;6.85;2.72;;;;;;;7.09;75.23;100690.97;10310470;28;20089;-66
2024/02/13 09:44:02;;;;;;;8.40;2.70;;;;;;;7.41;75.00;100685.25;10278964;28;20058;-66
2024/02/13 09:49:04;;;;;;;8.15;3.10;;;;;;;7.59;74.28;100684.47;10298998;28;20054;-67
2024/02/13 09:54:08;;;;;;;5.10;2.38;;;;;;;7.69;74.28;100695.97;10309743;28;20058;-67
2024/02/13 09:59:11;;;;;;;5.82;1.92;;;;;;;7.79;74.31;100701.25;10303444;28;20112;-67
2024/02/13 10:04:14;;;;;;;7.55;3.35;;;;;;;7.87;73.61;100709.38;10307277;28;20047;-66
2024/02/13 10:09:16;;;;;;;3.35;2.13;;;;;;;8.04;73.42;100713.94;10309442;28;20080;-67
2024/02/13 10:14:21;;;;;;;10.15;2.10;;;;;;;8.19;72.74;100716.91;10312023;28;20058;-66
2024/02/13 10:19:27;;;;;;;3.22;1.98;;;;;;;8.48;72.47;100716.75;10304323;28;20073;-66
2024/02/13 10:24:28;;;;;;;5.55;2.20;;;;;;;8.64;72.15;100709.84;10305995;28;20054;-65
2024/02/13 10:29:41;;;;;;;4.38;1.70;;;;;;;8.66;71.60;100715.91;10305372;28;20058;-66
2024/02/13 10:34:43;;;;;;;4.93;1.27;;;;;;;8.73;71.30;100714.28;10302771;28;20497;-69
2024/02/13 10:39:46;;;;;;;4.95;1.25;;;;;;;8.87;70.62;100708.38;10302415;28;20800;-69
2024/02/13 10:44:50;;;;;;;1.83;1.15;;;;;;;9.15;70.12;100712.75;10305891;28;20450;-69
2024/02/13 10:49:58;;;;;;;3.00;1.52;;;;;;;9.26;69.66;100721.38;10305123;28;20497;-71
2024/02/13 10:55:05;;;;;;;4.30;1.20;;;;;;;9.37;68.63;100714.06;10310262;28;20360;-71
2024/02/13 11:00:14;;;;;;;6.50;1.05;;;;;;;9.32;68.51;100726.09;10311351;28;20046;-69
2024/02/13 11:05:16;;;;;;;7.43;1.38;;;;;;;9.34;67.81;100723.28;10302079;28;20059;-71
2024/02/13 11:10:18;;;;;;;4.18;1.15;;;;;;;9.49;66.92;100715.44;10306838;28;20488;-72
2024/02/13 11:15:20;;;;;;;3.85;1.13;;;;;;;9.62;67.07;100713.19;10310013;28;20050;-69
2024/02/13 11:20:27;;;;;;;3.85;1.17;;;;;;;9.62;66.44;100707.81;10302300;28;20137;-71
2024/02/13 11:25:31;;;;;;;3.63;1.08;;;;;;;9.60;66.07;100696.41;10303239;28;20125;-70
2024/02/13 11:30:34;;;;;;;4.20;1.13;;;;;;;9.60;65.97;100693.72;10307549;28;20074;-71
2024/02/13 11:35:44;;;;;;;3.08;0.70;;;;;;;9.83;65.26;100709.22;10302468;28;20042;-72
2024/02/13 11:40:54;;;;;;;5.00;0.60;;;;;;;9.93;64.89;100692.00;10305794;28;20054;-72
2024/02/13 11:46:00;;;;;;;2.40;0.45;;;;;;;10.11;64.78;100685.63;10302977;28;20050;-64
2024/02/13 11:51:02;;;;;;;1.77;0.60;;;;;;;10.07;63.58;100705.75;10311853;28;20054;-65
2024/02/13 11:56:07;;;;;;;2.45;0.57;;;;;;;10.19;63.06;100687.50;10298596;28;20054;-65
2024/02/13 12:01:12;;;;;;;0.85;0.40;;;;;;;10.22;63.13;100692.56;10305058;28;20261;-64
2024/02/13 12:06:14;;;;;;;4.68;1.00;;;;;;;10.13;62.42;100697.91;10302494;28;20053;-65
2024/02/13 12:11:16;;;;;;;2.38;1.85;;;;;;;10.35;61.84;100702.84;10308648;28;20051;-66
2024/02/13 12:16:17;;;;;;;1.23;0.60;;;;;;;10.58;61.23;100684.22;10307558;28;20053;-67
2024/02/13 12:21:19;;;;;;;3.90;0.52;;;;;;;10.60;60.90;100679.50;10312767;28;20497;-66
2024/02/13 12:26:22;;;;;;;0.60;0.50;;;;;;;10.76;60.41;100678.66;10301501;28;20050;-67
2024/02/13 12:31:27;;;;;;;2.00;0.90;;;;;;;10.92;59.81;100675.97;10306239;28;20046;-66
2024/02/13 12:36:29;;;;;;;1.95;0.50;;;;;;;11.04;59.73;100679.16;10304882;28;20062;-69
2024/02/13 12:41:31;;;;;;;1.98;0.50;;;;;;;11.16;59.50;100666.16;10307621;28;20046;-70
2024/02/13 12:46:36;;;;;;;2.17;0.40;;;;;;;11.26;58.51;100669.50;10281766;28;20059;-70
2024/02/13 12:51:41;;;;;;;1.45;0.50;;;;;;;11.37;58.41;100668.28;10302102;28;20134;-70
2024/02/13 12:56:46;;;;;;;1.95;0.50;;;;;;;11.51;57.85;100659.47;10301450;28;20047;-69
2024/02/13 13:01:48;;;;;;;1.67;0.50;;;;;;;11.73;57.64;100646.25;10309797;28;20109;-70
2024/02/13 13:06:51;;;;;;;2.28;0.40;;;;;;;11.67;57.59;100662.13;10307213;28;20045;-70
2024/02/13 13:11:53;;;;;;;0.50;0.38;;;;;;;11.98;57.02;100645.13;10308211;28;20054;-69
2024/02/13 13:16:55;;;;;;;1.10;0.30;;;;;;;12.04;56.41;100644.41;10307965;28;20136;-69
2024/02/13 13:21:58;;;;;;;1.88;0.38;;;;;;;12.53;55.42;100642.41;10305614;28;20149;-70
2024/02/13 13:27:00;;;;;;;1.02;0.40;;;;;;;12.87;54.72;100623.88;10308173;28;20077;-70
2024/02/13 13:32:05;;;;;;;3.92;0.40;;;;;;;13.07;54.32;100613.38;10307225;28;20042;-70
2024/02/13 13:37:07;;;;;;;1.92;0.55;;;;;;;13.13;54.13;100609.09;10311119;28;20078;-69
2024/02/13 13:42:10;;;;;;;4.07;0.90;;;;;;;13.71;53.05;100609.22;10306283;28;20051;-70
2024/02/13 13:47:12;;;;;;;1.40;0.30;;;;;;;13.87;52.64;100614.38;10302675;28;20048;-69
2024/02/13 13:52:13;;;;;;;2.58;0.52;;;;;;;13.89;52.58;100615.03;10303837;28;20046;-66
2024/02/13 13:57:15;;;;;;;1.30;0.30;;;;;;;13.95;52.16;100613.44;10312212;28;20039;-64
2024/02/13 14:02:16;;;;;;;7.10;0.35;;;;;;;13.71;52.26;100619.22;10312002;28;20125;-65
2024/02/13 14:07:19;;;;;;;1.42;0.30;;;;;;;13.58;52.33;100618.00;10307839;28;20069;-65
2024/02/13 14:12:21;;;;;;;2.63;0.57;;;;;;;13.45;52.28;100629.47;10306828;28;20144;-65
2024/02/13 14:17:23;;;;;;;1.10;0.30;;;;;;;13.42;52.22;100637.94;10303483;28;20405;-66
2024/02/13 14:22:26;;;;;;;1.42;0.30;;;;;;;13.23;52.09;100635.78;10301221;28;20063;-64
2024/02/13 14:27:28;;;;;;;1.95;0.75;;;;;;;13.01;52.38;100641.09;10306562;28;20125;-65
2024/02/13 14:32:29;;;;;;;0.85;0.30;;;;;;;12.80;52.52;100657.16;10299299;28;20409;-65
2024/02/13 14:37:31;;;;;;;1.23;0.20;;;;;;;12.67;52.85;100671.25;10304185;28;20054;-68
2024/02/13 14:42:33;;;;;;;1.55;0.30;;;;;;;12.45;53.08;100672.97;10303853;28;20097;-69
2024/02/13 14:47:39;;;;;;;1.05;0.20;;;;;;;12.28;53.42;100680.31;10305163;28;20113;-70
2024/02/13 14:52:41;;;;;;;1.23;0.28;;;;;;;12.28;53.25;100683.00;10306736;28;20039;-69
2024/02/13 14:57:43;;;;;;;1.50;0.30;;;;;;;12.36;53.79;100674.03;10305927;28;20422;-69
2024/02/13 15:03:01;;;;;;;4.40;0.30;;;;;;;12.20;53.61;100670.41;10300821;28;20057;-70
2024/02/13 15:08:03;;;;;;;2.25;0.22;;;;;;;12.06;53.13;100674.72;10302627;28;20055;-69
2024/02/13 15:13:06;;;;;;;4.80;0.65;;;;;;;11.95;52.05;100672.44;10305736;28;20046;-69
2024/02/13 15:18:08;;;;;;;5.45;0.50;;;;;;;12.03;51.84;100676.97;10301732;28;20042;-69
2024/02/13 15:23:12;;;;;;;2.15;0.40;;;;;;;12.18;51.86;100674.31;10324741;28;20121;-68
2024/02/13 15:28:15;;;;;;;2.30;0.40;;;;;;;12.11;51.71;100682.28;10319084;28;20194;-68
2024/02/13 15:33:20;;;;;;;2.05;0.20;;;;;;;12.16;51.20;100674.50;10302606;28;20050;-69
2024/02/13 15:49:05;;;;;;;0.88;0.15;;;;;;;11.94;51.58;100680.72;10305045;28;20141;-69
2024/02/13 15:54:08;;;;;;;1.20;0.60;;;;;;;11.92;51.34;100683.56;10302204;28;20063;-67
2024/02/13 15:59:10;;;;;;;2.25;0.20;;;;;;;11.99;51.07;100684.56;10301412;28;20077;-68
2024/02/13 16:04:12;;;;;;;5.70;1.60;;;;;;;11.86;51.43;100684.25;10292212;28;20066;-68
2024/02/13 16:09:15;;;;;;;3.03;0.57;;;;;;;11.68;51.01;100687.19;10300589;28;20129;-68
2024/02/13 16:14:17;;;;;;;1.08;0.40;;;;;;;11.61;51.36;100684.38;10296003;28;20058;-67
2024/02/13 16:19:19;;;;;;;1.95;0.73;;;;;;;11.60;51.11;100681.84;10299740;28;20070;-66
2024/02/13 16:24:21;;;;;;;1.67;0.32;;;;;;;11.61;51.30;100678.97;10318966;28;20077;-68
2024/02/13 16:29:23;;;;;;;2.17;0.20;;;;;;;11.57;50.98;100687.56;10309178;28;20054;-64
2024/02/13 16:34:25;;;;;;;1.63;0.25;;;;;;;11.44;51.14;100694.34;10303932;28;20049;-65
2024/02/13 16:39:27;;;;;;;1.48;0.30;;;;;;;11.38;51.73;100703.13;10314029;22;20083;-66
2024/02/13 16:44:28;;;;;;;1.80;0.30;;;;;;;11.37;51.68;100705.97;10301033;28;20373;-63
2024/02/13 16:49:30;;;;;;;1.45;0.40;;;;;;;11.40;51.52;100694.88;10303991;28;20062;-64
2024/02/13 16:54:32;;;;;;;0.77;0.40;;;;;;;11.56;51.25;100708.28;10307427;28;20053;-66
2024/02/13 16:59:33;;;;;;;2.85;0.50;;;;;;;11.55;51.36;100709.28;10308231;28;20054;-65
2024/02/13 17:04:35;;;;;;;1.50;0.60;;;;;;;11.35;52.34;100711.53;10310774;28;20506;-66
2024/02/13 17:09:36;;;;;;;4.05;0.60;;;;;;;11.24;52.25;100717.28;10305145;28;20057;-65
2024/02/13 17:14:38;;;;;;;1.77;0.68;;;;;;;11.08;53.45;100720.84;10303915;28;20050;-65
2024/02/13 17:19:40;;;;;;;1.52;0.80;;;;;;;10.96;54.10;100709.59;10312064;28;20050;-65
2024/02/13 17:24:41;;;;;;;2.45;0.85;;;;;;;10.90;54.15;100703.03;10308294;28;20051;-66
2024/02/13 17:29:43;;;;;;;2.83;1.30;;;;;;;10.83;54.51;100699.34;10306402;28;20607;-66
2024/02/13 17:34:45;;;;;;;3.33;1.05;;;;;;;10.80;54.77;100704.19;10304038;28;20410;-62
2024/02/13 17:39:47;;;;;;;2.75;1.50;;;;;;;10.74;55.27;100711.09;10294077;28;20134;-69
2024/02/13 17:44:51;;;;;;;3.95;1.42;;;;;;;10.61;55.71;100713.47;10264838;28;20054;-66
2024/02/13 17:49:53;;;;;;;2.63;1.23;;;;;;;10.47;56.21;100718.47;10277269;28;20418;-70
2024/02/13 17:54:55;;;;;;;2.85;1.27;;;;;;;10.47;56.03;100714.97;10264714;28;20058;-68
2024/02/13 17:59:56;;;;;;;10.48;3.47;;;;;;;10.41;56.11;100724.53;10265659;28;20118;-68
2024/02/13 18:04:57;;;;;;;5.88;2.70;;;;;;;10.28;56.86;100726.81;10266763;28;20532;-69
2024/02/13 18:09:59;;;;;;;5.18;2.20;;;;;;;10.20;56.48;100719.56;10263694;28;20113;-68
2024/02/13 18:15:02;;;;;;;7.32;2.80;;;;;;;10.17;56.55;100719.06;10264820;28;20061;-69
2024/02/13 18:20:04;;;;;;;4.47;1.70;;;;;;;10.12;56.89;100700.75;10261552;28;20058;-71
2024/02/13 18:25:08;;;;;;;4.57;1.00;;;;;;;10.13;56.70;100705.97;10260469;28;20491;-65
2024/02/13 18:30:10;;;;;;;1.85;0.90;;;;;;;10.13;56.31;100708.66;10260956;28;20047;-69
2024/02/13 18:35:13;;;;;;;3.03;0.90;;;;;;;10.09;56.59;100709.13;10263859;28;20109;-71
2024/02/13 18:40:14;;;;;;;4.03;0.80;;;;;;;10.02;56.85;100706.28;10263771;28;20541;-72
2024/02/13 18:45:16;;;;;;;5.10;0.80;;;;;;;10.02;56.40;100714.31;10260464;28;20047;-66
2024/02/13 18:50:18;;;;;;;3.08;0.90;;;;;;;10.02;56.42;100708.13;10263873;28;20051;-69
2024/02/13 18:55:20;;;;;;;4.78;1.00;;;;;;;9.99;56.90;100711.97;10262490;28;20102;-69
2024/02/13 19:00:23;;;;;;;9.00;2.78;;;;;;;10.02;56.38;100702.75;10265242;28;20051;-66
2024/02/13 19:05:25;;;;;;;4.57;1.20;;;;;;;9.95;56.97;100705.22;10258619;28;20392;-68
2024/02/13 19:10:28;;;;;;;2.85;0.85;;;;;;;9.84;57.33;100711.75;10274018;28;20053;-68
2024/02/13 19:15:30;;;;;;;4.38;1.77;;;;;;;9.80;57.51;100709.56;10264392;28;20539;-70
2024/02/13 19:20:33;;;;;;;3.25;1.30;;;;;;;9.74;57.31;100711.06;10258073;28;20100;-66
2024/02/13 19:25:35;;;;;;;2.65;1.50;;;;;;;9.76;57.28;100717.09;10262654;28;20153;-67
2024/02/13 19:30:36;;;;;;;6.28;2.55;;;;;;;9.79;57.03;100707.88;10265289;28;20051;-69
2024/02/13 19:35:38;;;;;;;6.00;3.22;;;;;;;9.80;57.36;100702.34;10263109;28;20491;-68
2024/02/13 19:40:40;;;;;;;5.85;2.10;;;;;;;9.82;57.12;100707.56;10269582;28;20066;-67
2024/02/13 19:45:44;;;;;;;6.32;1.67;;;;;;;9.81;57.14;100706.69;10269690;28;20050;-67
2024/02/13 19:50:47;;;;;;;5.03;1.23;;;;;;;9.76;57.41;100701.00;10272556;28;20051;-67
2024/02/13 19:55:48;;;;;;;3.15;1.65;;;;;;;9.73;57.72;100707.53;10258799;28;20055;-69
2024/02/13 20:00:50;;;;;;;5.68;1.90;;;;;;;9.67;57.99;100716.19;10258906;28;20051;-69
2024/02/13 20:05:53;;;;;;;9.75;2.20;;;;;;;9.64;57.94;100718.38;10253772;28;20050;-69
2024/02/13 20:10:59;;;;;;;4.82;1.75;;;;;;;9.70;58.12;100718.56;10259253;28;20528;-70
2024/02/13 20:16:01;;;;;;;6.40;1.58;;;;;;;9.75;57.95;100719.94;10262450;28;20475;-70
2024/02/13 20:21:03;;;;;;;5.30;1.98;;;;;;;9.69;58.36;100727.63;10258714;28;20055;-69
2024/02/13 20:26:05;;;;;;;2.72;1.90;;;;;;;9.64;58.71;100735.31;10260253;28;20149;-70
2024/02/13 20:31:07;;;;;;;5.10;2.50;;;;;;;9.69;58.57;100732.97;10260227;28;20058;-67
2024/02/13 20:36:09;;;;;;;4.57;2.25;;;;;;;9.78;58.44;100730.38;10260427;28;20066;-71
2024/02/13 20:41:11;;;;;;;8.63;2.92;;;;;;;9.67;58.84;100726.94;10260803;28;20059;-67
2024/02/13 20:46:15;;;;;;;6.13;2.22;;;;;;;9.70;59.06;100725.78;10255688;28;20054;-69
2024/02/13 20:51:17;;;;;;;5.82;2.88;;;;;;;9.75;59.00;100723.44;10254627;28;20409;-70
2024/02/13 20:56:18;;;;;;;7.43;3.63;;;;;;;9.84;58.81;100718.97;10258275;28;20062;-69
2024/02/13 21:01:27;;;;;;;7.68;2.92;;;;;;;9.87;58.57;100714.13;10255463;28;20125;-67
2024/02/13 21:06:29;;;;;;;8.05;4.03;;;;;;;9.88;58.71;100723.84;10259932;28;20747;-71
2024/02/13 21:11:31;;;;;;;7.25;2.90;;;;;;;9.89;59.06;100730.06;10258550;28;20047;-71
2024/02/13 21:16:33;;;;;;;9.02;3.60;;;;;;;9.88;59.07;100715.78;10254189;28;20146;-72
2024/02/13 21:26:55;;;;;;;8.80;2.75;;;;;;;9.79;59.33;100718.59;10268897;28;20552;-70
2024/02/13 21:31:57;;;;;;;6.75;3.50;;;;;;;9.77;59.30;100712.56;10270674;28;20297;-70
2024/02/13 21:36:59;;;;;;;8.32;4.30;;;;;;;9.61;59.90;100716.84;10264902;28;20097;-68
2024/02/13 21:42:01;;;;;;;12.30;5.60;;;;;;;9.45;59.95;100719.47;10263366;28;20138;-69
2024/02/13 21:47:02;;;;;;;12.43;4.78;;;;;;;9.32;60.08;100715.38;10267157;28;20074;-70
2024/02/13 21:52:04;;;;;;;10.60;4.72;;;;;;;9.20;60.36;100726.50;10265940;28;20049;-69
2024/02/13 21:57:06;;;;;;;6.63;3.40;;;;;;;9.06;60.43;100719.88;10261539;28;20086;-69
2024/02/13 22:02:08;;;;;;;7.68;2.72;;;;;;;8.95;60.67;100717.47;10265998;28;20585;-70
2024/02/13 22:07:09;;;;;;;5.70;2.00;;;;;;;8.89;60.78;100719.78;10272178;28;20066;-66
2024/02/13 22:12:11;;;;;;;2.58;1.30;;;;;;;8.84;60.67;100714.03;10264614;28;20051;-70
2024/02/13 22:17:13;;;;;;;4.00;1.30;;;;;;;8.80;60.78;100709.13;10264320;28;20130;-65
2024/02/13 22:22:15;;;;;;;4.53;1.27;;;;;;;8.77;60.74;100717.47;10262950;28;20055;-65
2024/02/13 22:27:20;;;;;;;17.00;1.75;;;;;;;8.71;60.78;100727.00;10264183;28;20059;-66
2024/02/13 22:32:22;;;;;;;3.20;1.10;;;;;;;8.64;61.04;100723.25;10260819;28;20069;-66
2024/02/13 22:37:23;;;;;;;1.98;0.90;;;;;;;8.65;61.08;100719.56;10260174;28;20061;-66
2024/02/13 22:42:25;;;;;;;4.55;1.15;;;;;;;8.69;60.91;100712.91;10268544;28;20082;-70
2024/02/13 22:47:26;;;;;;;4.30;1.10;;;;;;;8.70;60.94;100712.75;10265365;28;20069;-68
2024/02/13 22:52:29;;;;;;;2.30;0.70;;;;;;;8.71;60.89;100714.44;10284863;28;20065;-69
2024/02/13 22:57:31;;;;;;;2.05;0.85;;;;;;;8.74;60.88;100714.13;10267535;28;20047;-70
2024/02/13 23:02:32;;;;;;;3.05;0.90;;;;;;;8.73;61.17;100715.13;10268431;28;20521;-71
2024/02/13 23:07:33;;;;;;;2.45;0.80;;;;;;;8.82;60.78;100707.97;10262483;28;20070;-69
2024/02/13 23:12:37;;;;;;;2.47;1.10;;;;;;;8.89;60.71;100710.91;10263111;28;20141;-69
2024/02/13 23:17:39;;;;;;;2.78;0.93;;;;;;;8.95;60.45;100707.59;10259227;28;20051;-70
2024/02/13 23:22:40;;;;;;;4.40;1.00;;;;;;;8.98;60.42;100720.66;10264244;28;20066;-70
2024/02/13 23:27:42;;;;;;;3.78;1.02;;;;;;;9.05;60.41;100713.69;10259095;28;20138;-66
2024/02/13 23:32:47;;;;;;;3.50;0.88;;;;;;;9.15;59.97;100716.25;10263754;28;20061;-67
2024/02/13 23:37:49;;;;;;;5.38;1.48;;;;;;;9.15;60.20;100705.53;10257092;28;20078;-67
2024/02/13 23:42:52;;;;;;;4.43;1.58;;;;;;;9.20;60.23;100703.25;10261365;28;20491;-66